createdAt,value
2019-05-10T00:00:27.147Z,2.50
2019-05-10T00:03:13.977Z,7.13
2019-05-10T00:06:00.865Z,3.33
2019-05-10T00:08:47.351Z,4.67
2019-05-10T00:11:38.588Z,1.83
2019-05-10T00:14:35.040Z,1.60
2019-05-10T00:17:11.035Z,4.90
2019-05-10T00:19:40.429Z,1.63
2019-05-10T00:22:09.845Z,1.93
2019-05-10T00:24:39.215Z,1.90
2019-05-10T00:27:08.662Z,1.93
2019-05-10T00:29:38.054Z,4.93
2019-05-10T00:32:07.467Z,1.87
2019-05-10T00:34:36.904Z,4.23
2019-05-10T00:37:06.462Z,2.23
2019-05-10T00:39:35.879Z,2.70
2019-05-10T00:42:05.323Z,5.20
2019-05-10T00:44:34.784Z,2.67
2019-05-10T00:47:04.323Z,5.07
2019-05-10T00:49:33.751Z,2.67
2019-05-10T00:52:03.305Z,3.60
2019-05-10T00:54:32.667Z,2.37
2019-05-10T00:57:02.122Z,2.30
2019-05-10T00:59:31.507Z,4.83
2019-05-10T01:02:00.949Z,4.17
2019-05-10T01:04:30.664Z,2.60
2019-05-10T01:07:00.071Z,4.30
2019-05-10T01:09:29.560Z,4.47
2019-05-10T01:11:58.899Z,3.43
2019-05-10T01:14:28.288Z,2.70
2019-05-10T01:16:57.685Z,3.87
2019-05-10T01:19:27.115Z,2.80
2019-05-10T01:21:56.548Z,2.90
2019-05-10T01:24:25.998Z,4.50
2019-05-10T01:26:55.390Z,4.40
2019-05-10T01:29:25.143Z,3.53
2019-05-10T01:31:54.551Z,5.20
2019-05-10T01:34:23.961Z,4.00
2019-05-10T01:36:53.511Z,4.13
2019-05-10T01:39:22.865Z,3.23
2019-05-10T01:41:52.248Z,4.23
2019-05-10T01:44:21.725Z,3.40
2019-05-10T01:46:51.140Z,2.87
2019-05-10T01:49:20.586Z,7.83
2019-05-10T01:51:50.021Z,5.30
2019-05-10T01:54:19.361Z,4.83
2019-05-10T01:56:48.711Z,3.50
2019-05-10T01:59:18.089Z,6.37
2019-05-10T02:01:47.461Z,5.70
2019-05-10T02:04:17.737Z,7.10
2019-05-10T02:06:47.878Z,4.40
2019-05-10T02:09:17.305Z,3.90
2019-05-10T02:11:46.673Z,4.83
2019-05-10T02:14:16.136Z,6.40
2019-05-10T02:16:45.584Z,4.43
2019-05-10T02:19:14.978Z,5.00
2019-05-10T02:21:44.380Z,4.83
2019-05-10T02:24:13.870Z,10.83
2019-05-10T02:26:43.365Z,9.00
2019-05-10T02:29:13.268Z,6.03
2019-05-10T02:31:42.634Z,6.03
2019-05-10T02:34:12.179Z,5.43
2019-05-10T02:36:41.639Z,6.23
2019-05-10T02:39:10.988Z,6.60
2019-05-10T02:41:40.453Z,5.30
2019-05-10T02:44:09.856Z,6.67
2019-05-10T02:46:39.254Z,6.60
2019-05-10T02:49:08.991Z,7.20
2019-05-10T02:51:38.046Z,6.53
2019-05-10T02:54:07.440Z,7.97
2019-05-10T02:56:37.847Z,9.20
2019-05-10T02:59:07.717Z,8.37
2019-05-10T03:01:39.993Z,8.70
2019-05-10T03:04:11.661Z,6.97
2019-05-10T03:06:43.823Z,8.30
2019-05-10T03:09:13.335Z,8.10
2019-05-10T03:11:49.248Z,8.63
2019-05-10T03:14:19.358Z,11.63
2019-05-10T03:16:51.580Z,8.70
2019-05-10T03:19:21.995Z,6.73
2019-05-10T03:22:06.377Z,8.50
2019-05-10T03:24:35.828Z,9.77
2019-05-10T03:27:05.196Z,11.17
2019-05-10T03:29:34.615Z,6.90
2019-05-10T03:32:04.114Z,8.97
2019-05-10T03:34:33.567Z,6.70
2019-05-10T03:37:03.202Z,9.30
2019-05-10T03:39:32.568Z,8.80
2019-05-10T03:42:02.201Z,6.80
2019-05-10T03:44:31.629Z,7.03
2019-05-10T03:47:02.598Z,6.60
2019-05-10T03:49:32.059Z,6.90
2019-05-10T03:52:01.526Z,7.63
2019-05-10T03:54:30.860Z,8.43
2019-05-10T03:57:12.033Z,5.63
2019-05-10T03:59:31.225Z,8.80
2019-05-10T04:02:00.635Z,16.70
2019-05-10T04:04:30.066Z,7.87
2019-05-10T04:06:59.426Z,6.33
2019-05-10T04:09:28.786Z,6.70
2019-05-10T04:11:58.183Z,10.80
2019-05-10T04:14:27.519Z,6.37
2019-05-10T04:16:56.830Z,13.73
2019-05-10T04:19:26.356Z,8.90
2019-05-10T04:21:55.824Z,8.87
2019-05-10T04:24:25.164Z,8.33
2019-05-10T04:26:54.524Z,8.47
2019-05-10T04:29:23.913Z,8.37
2019-05-10T04:31:53.468Z,14.43
2019-05-10T04:34:22.794Z,9.20
2019-05-10T04:36:52.163Z,7.27
2019-05-10T04:39:22.027Z,7.27
2019-05-10T04:41:51.436Z,8.17
2019-05-10T04:44:20.833Z,11.70
2019-05-10T04:46:50.225Z,8.27
2019-05-10T04:49:19.642Z,7.57
2019-05-10T04:51:49.689Z,9.20
2019-05-10T04:54:19.100Z,8.23
2019-05-10T04:56:48.492Z,9.23
2019-05-10T04:59:17.862Z,9.97
2019-05-10T05:01:47.564Z,7.20
2019-05-10T05:04:16.982Z,7.67
2019-05-10T05:06:46.378Z,10.90
2019-05-10T05:09:15.802Z,17.90
2019-05-10T05:11:45.109Z,11.03
2019-05-10T05:14:14.970Z,7.90
2019-05-10T05:16:44.858Z,6.43
2019-05-10T05:19:14.182Z,9.10
2019-05-10T05:21:43.542Z,7.17
2019-05-10T05:24:17.103Z,8.30
2019-05-10T05:26:44.140Z,8.97
2019-05-10T05:29:13.515Z,10.57
2019-05-10T05:31:43.293Z,6.73
2019-05-10T05:34:13.058Z,7.50
2019-05-10T05:36:42.801Z,11.33
2019-05-10T05:39:12.231Z,12.17
2019-05-10T05:41:48.721Z,7.83
2019-05-10T05:44:12.744Z,5.73
2019-05-10T05:46:42.123Z,4.80
2019-05-10T05:49:11.565Z,5.80
2019-05-10T05:51:41.248Z,6.70
2019-05-10T05:54:15.139Z,7.10
2019-05-10T05:56:44.604Z,6.20
2019-05-10T05:59:17.605Z,5.97
2019-05-10T06:01:44.478Z,6.57
2019-05-10T06:04:13.884Z,12.17
2019-05-10T06:06:43.422Z,7.43
2019-05-10T06:09:12.793Z,18.23
2019-05-10T06:11:42.490Z,16.40
2019-05-10T06:14:12.854Z,16.60
2019-05-10T06:16:45.147Z,11.63
2019-05-10T06:19:13.623Z,9.93
2019-05-10T06:21:43.312Z,7.97
2019-05-10T06:24:13.719Z,6.77
2019-05-10T06:26:44.144Z,21.57
2019-05-10T06:29:17.650Z,7.63
2019-05-10T06:31:44.787Z,10.30
2019-05-10T06:34:14.239Z,6.87
2019-05-10T06:36:43.653Z,10.73
2019-05-10T06:39:13.007Z,16.83
2019-05-10T06:41:44.459Z,8.83
2019-05-10T06:44:13.803Z,6.73
2019-05-10T06:46:43.166Z,8.53
2019-05-10T06:49:12.703Z,10.17
2019-05-10T06:51:42.900Z,12.47
2019-05-10T06:54:14.143Z,11.07
2019-05-10T06:56:43.621Z,26.67
2019-05-10T06:59:14.146Z,55.77
2019-05-10T07:01:45.628Z,20.17
2019-05-10T07:04:15.193Z,9.07
2019-05-10T07:06:44.609Z,13.80
2019-05-10T07:09:14.006Z,13.87
2019-05-10T07:11:43.745Z,13.03
2019-05-10T07:14:13.327Z,16.10
2019-05-10T07:16:42.691Z,13.17
2019-05-10T07:19:12.257Z,14.27
2019-05-10T07:21:44.859Z,7.30
2019-05-10T07:24:18.166Z,12.90
2019-05-10T07:26:44.649Z,11.20
2019-05-10T07:29:29.050Z,12.80
2019-05-10T07:31:46.136Z,13.03
2019-05-10T07:34:17.509Z,11.50
2019-05-10T07:36:46.792Z,18.00
2019-05-10T07:39:16.264Z,13.90
2019-05-10T07:41:45.747Z,7.43
2019-05-10T07:44:15.651Z,10.87
2019-05-10T07:46:47.016Z,8.93
2019-05-10T07:49:16.148Z,13.33
2019-05-10T07:51:46.773Z,8.90
2019-05-10T07:54:16.261Z,10.83
2019-05-10T07:56:47.831Z,13.13
2019-05-10T07:59:21.606Z,11.97
2019-05-10T08:01:50.490Z,9.20
2019-05-10T08:04:29.003Z,15.23
2019-05-10T08:06:51.937Z,13.50
2019-05-10T08:09:21.614Z,11.13
2019-05-10T08:11:53.919Z,12.80
2019-05-10T08:14:25.291Z,24.83
2019-05-10T08:16:58.365Z,13.63
2019-05-10T08:19:25.560Z,14.40
2019-05-10T08:22:00.832Z,14.40
2019-05-10T08:24:26.434Z,10.20
2019-05-10T08:27:06.773Z,10.20
2019-05-10T08:29:26.959Z,12.87
2019-05-10T08:31:56.312Z,14.17
2019-05-10T08:34:28.965Z,6.67
2019-05-10T08:36:56.874Z,13.10
2019-05-10T08:39:26.238Z,11.00
2019-05-10T08:42:04.090Z,10.63
2019-05-10T08:44:27.639Z,8.40
2019-05-10T08:46:56.990Z,10.47
2019-05-10T08:49:32.045Z,11.93
2019-05-10T08:51:57.722Z,8.13
2019-05-10T08:54:27.224Z,7.20
2019-05-10T08:57:01.101Z,10.20
2019-05-10T08:59:30.687Z,8.50
2019-05-10T09:01:58.942Z,7.13
2019-05-10T09:04:33.461Z,5.20
2019-05-10T09:07:00.074Z,7.13
2019-05-10T09:09:33.829Z,9.57
2019-05-10T09:12:04.171Z,7.33
2019-05-10T09:14:32.726Z,7.90
2019-05-10T09:17:04.388Z,5.33
2019-05-10T09:19:40.523Z,9.27
2019-05-10T09:22:04.913Z,6.27
2019-05-10T09:24:34.999Z,11.90
2019-05-10T09:27:05.370Z,4.23
2019-05-10T09:29:37.297Z,7.23
2019-05-10T09:32:06.675Z,4.33
2019-05-10T09:34:36.242Z,5.43
2019-05-10T09:37:08.037Z,9.30
2019-05-10T09:39:36.733Z,5.80
2019-05-10T09:42:09.198Z,9.47
2019-05-10T09:44:37.155Z,8.13
2019-05-10T09:47:06.581Z,3.97
2019-05-10T09:49:36.259Z,3.63
2019-05-10T09:52:12.786Z,5.33
2019-05-10T09:54:38.136Z,5.40
2019-05-10T09:57:08.248Z,2.07
2019-05-10T09:59:37.715Z,2.90
2019-05-10T10:02:14.655Z,4.23
2019-05-10T10:04:38.522Z,3.67
2019-05-10T10:07:07.981Z,3.03
2019-05-10T10:09:44.325Z,2.57
2019-05-10T10:12:08.912Z,3.70
2019-05-10T10:14:43.004Z,6.50
2019-05-10T10:17:09.481Z,6.10
2019-05-10T10:19:40.647Z,1.63
2019-05-10T10:22:10.949Z,7.47
2019-05-10T10:24:41.577Z,4.80
2019-05-10T10:27:11.053Z,5.03
2019-05-10T10:29:40.476Z,3.50
2019-05-10T10:32:09.867Z,3.13
2019-05-10T10:34:42.952Z,10.83
2019-05-10T10:37:14.856Z,4.47
2019-05-10T10:39:41.497Z,10.80
2019-05-10T10:42:13.140Z,6.90
2019-05-10T10:44:42.050Z,4.07
2019-05-10T10:47:11.381Z,6.10
2019-05-10T10:49:40.830Z,4.20
2019-05-10T10:52:11.399Z,4.60
2019-05-10T10:54:41.333Z,6.97
2019-05-10T10:57:10.740Z,5.30
2019-05-10T10:59:40.408Z,2.97
2019-05-10T11:02:31.314Z,7.50
2019-05-10T11:04:46.739Z,5.33
2019-05-10T11:07:12.141Z,1.90
2019-05-10T11:09:41.580Z,3.53
2019-05-10T11:12:14.780Z,2.20
2019-05-10T11:14:45.392Z,8.13
2019-05-10T11:17:13.641Z,4.00
2019-05-10T11:19:43.324Z,4.03
2019-05-10T11:22:12.812Z,4.90
2019-05-10T11:24:42.330Z,2.80
2019-05-10T11:27:13.055Z,3.30
2019-05-10T11:29:42.789Z,5.13
2019-05-10T11:32:16.692Z,5.73
2019-05-10T11:34:44.851Z,4.10
2019-05-10T11:37:16.181Z,3.07
2019-05-10T11:39:47.091Z,9.03
2019-05-10T11:42:16.772Z,2.77
2019-05-10T11:44:50.277Z,6.60
2019-05-10T11:47:24.093Z,5.30
2019-05-10T11:49:48.144Z,6.10
2019-05-10T11:52:18.297Z,6.77
2019-05-10T11:54:47.827Z,4.10
2019-05-10T11:57:17.182Z,3.60
2019-05-10T11:59:46.619Z,6.13
2019-05-10T12:02:35.370Z,4.50
2019-05-10T12:04:47.408Z,2.20
2019-05-10T12:07:23.810Z,3.10
2019-05-10T12:09:55.658Z,3.80
2019-05-10T12:14:53.953Z,4.60
2019-05-10T12:17:24.051Z,2.90
2019-05-10T12:19:56.246Z,3.77
2019-05-10T12:22:31.982Z,2.07
2019-05-10T12:25:19.790Z,2.00
2019-05-10T12:26:31.161Z,2.40
2019-05-10T12:27:35.962Z,2.33
2019-05-10T12:30:00.689Z,2.73
2019-05-10T12:32:35.216Z,2.23
2019-05-10T12:35:01.333Z,2.70
2019-05-10T12:37:30.886Z,2.47
2019-05-10T12:40:06.192Z,1.90
2019-05-10T12:42:31.744Z,2.40
2019-05-10T12:45:01.323Z,5.40
2019-05-10T12:47:30.551Z,4.93
2019-05-10T12:50:03.397Z,5.13
2019-05-10T12:52:32.697Z,2.47
2019-05-10T12:55:02.075Z,3.47
2019-05-10T12:57:34.841Z,7.37
2019-05-10T13:00:06.914Z,2.80
2019-05-10T13:02:35.641Z,2.20
2019-05-10T13:05:06.206Z,3.10
2019-05-10T13:07:37.022Z,4.83
2019-05-10T13:10:08.826Z,1.83
2019-05-10T13:12:44.307Z,4.33
2019-05-10T13:15:10.185Z,1.90
2019-05-10T13:17:44.219Z,6.13
2019-05-10T13:20:10.832Z,4.93
2019-05-10T13:22:40.286Z,2.10
2019-05-10T13:25:09.826Z,2.17
2019-05-10T13:27:39.465Z,1.60
2019-05-10T13:30:10.783Z,6.20
2019-05-10T13:32:40.223Z,2.20
2019-05-10T13:35:09.455Z,18.47
2019-05-10T13:37:38.616Z,1.80
2019-05-10T13:40:08.354Z,2.53
2019-05-10T13:42:43.076Z,3.67
2019-05-10T13:45:09.741Z,2.23
2019-05-10T13:47:39.226Z,3.67
2019-05-10T13:50:08.868Z,8.20
2019-05-10T13:52:40.979Z,2.73
2019-05-10T13:55:09.498Z,4.10
2019-05-10T13:57:39.021Z,2.20
2019-05-10T14:00:09.488Z,4.10
2019-05-10T14:02:38.932Z,3.20
2019-05-10T14:05:11.979Z,2.80
2019-05-10T14:07:39.900Z,4.63
2019-05-10T14:10:09.401Z,3.17
2019-05-10T14:12:38.809Z,4.10
2019-05-10T14:15:13.386Z,4.40
2019-05-10T14:17:40.324Z,2.30
2019-05-10T14:20:19.449Z,4.20
2019-05-10T14:22:41.249Z,1.60
2019-05-10T14:25:11.034Z,2.50
2019-05-10T14:27:41.173Z,1.50
2019-05-10T14:30:13.333Z,11.70
2019-05-10T14:32:41.256Z,2.07
2019-05-10T14:35:11.233Z,9.57
2019-05-10T14:37:40.664Z,3.07
2019-05-10T14:40:10.243Z,1.63
2019-05-10T14:42:40.598Z,9.03
2019-05-10T14:45:10.042Z,1.83
2019-05-10T14:47:48.413Z,3.10
2019-05-10T14:50:10.881Z,5.07
2019-05-10T14:52:40.498Z,3.73
2019-05-10T14:55:12.867Z,2.60
2019-05-10T14:57:41.215Z,2.13
2019-05-10T15:00:10.568Z,1.97
2019-05-10T15:02:39.741Z,3.63
2019-05-10T15:05:15.755Z,1.70
2019-05-10T15:07:40.373Z,4.00
2019-05-10T15:10:09.954Z,1.90
2019-05-10T15:12:39.399Z,4.00
2019-05-10T15:15:09.371Z,2.03
2019-05-10T15:17:38.769Z,5.73
2019-05-10T15:20:08.713Z,2.97
2019-05-10T15:22:38.077Z,1.90
2019-05-10T15:25:08.272Z,2.73
2019-05-10T15:27:37.741Z,4.17
2019-05-10T15:30:08.202Z,4.00
2019-05-10T15:32:38.154Z,3.07
2019-05-10T15:35:08.903Z,3.93
2019-05-10T15:37:40.980Z,5.63
2019-05-10T15:40:10.042Z,3.60
2019-05-10T15:42:40.337Z,2.30
2019-05-10T15:45:12.663Z,1.67
2019-05-10T15:47:50.775Z,4.47
2019-05-10T15:50:13.286Z,3.37
2019-05-10T15:52:46.448Z,3.40
2019-05-10T15:55:16.474Z,3.90
2019-05-10T15:57:44.979Z,2.90
2019-05-10T16:00:16.624Z,5.90
2019-05-10T16:02:45.638Z,1.97
2019-05-10T16:05:25.529Z,1.80
2019-05-10T16:07:51.558Z,5.03
2019-05-10T16:10:17.964Z,4.50
2019-05-10T16:12:47.710Z,1.93
2019-05-10T16:15:20.117Z,11.03
2019-05-10T16:17:48.273Z,2.23
2019-05-10T16:20:17.727Z,2.87
2019-05-10T16:22:47.132Z,4.13
2019-05-10T16:25:16.637Z,2.70
2019-05-10T16:27:46.141Z,2.20
2019-05-10T16:30:17.831Z,1.47
2019-05-10T16:32:47.047Z,4.20
2019-05-10T16:35:16.806Z,1.70
2019-05-10T16:37:46.285Z,4.47
2019-05-10T16:40:15.909Z,2.10
2019-05-10T16:42:45.380Z,3.83
2019-05-10T16:45:15.177Z,2.23
2019-05-10T16:47:44.602Z,1.40
2019-05-10T16:50:14.106Z,1.23
2019-05-10T16:52:43.435Z,2.07
2019-05-10T16:55:12.854Z,4.10
2019-05-10T16:57:42.218Z,1.83
2019-05-10T17:00:13.304Z,4.30
2019-05-10T17:02:44.023Z,2.07
2019-05-10T17:05:15.525Z,2.30
2019-05-10T17:07:45.123Z,5.50
2019-05-10T17:10:14.774Z,2.17
2019-05-10T17:12:44.511Z,4.00
2019-05-10T17:15:14.322Z,2.97
2019-05-10T17:17:44.991Z,3.23
2019-05-10T17:20:15.850Z,2.40
2019-05-10T17:22:45.380Z,3.77
2019-05-10T17:25:15.143Z,3.53
2019-05-10T17:27:44.503Z,4.60
2019-05-10T17:30:14.124Z,4.63
2019-05-10T17:32:43.592Z,3.00
2019-05-10T17:35:13.131Z,3.10
2019-05-10T17:37:42.565Z,7.43
2019-05-10T17:40:12.370Z,4.33
2019-05-10T17:42:43.295Z,8.10
2019-05-10T17:45:12.664Z,3.63
2019-05-10T17:47:42.202Z,10.60
2019-05-10T17:50:11.639Z,10.57
2019-05-10T17:52:41.111Z,11.17
2019-05-10T17:55:15.992Z,9.60
2019-05-10T17:57:41.706Z,8.30
2019-05-10T18:00:11.920Z,9.70
2019-05-10T18:02:41.354Z,13.77
2019-05-10T18:05:11.046Z,6.30
2019-05-10T18:07:40.433Z,4.33
2019-05-10T18:10:09.836Z,8.97
2019-05-10T18:12:39.265Z,6.23
2019-05-10T18:15:09.212Z,5.27
2019-05-10T18:17:38.620Z,5.00
2019-05-10T18:20:08.268Z,5.60
2019-05-10T18:22:43.108Z,5.90
2019-05-10T18:25:19.348Z,4.90
2019-05-10T18:27:39.819Z,13.23
2019-05-10T18:30:09.785Z,7.10
2019-05-10T18:32:39.261Z,45.27
2019-05-10T18:35:14.715Z,14.30
2019-05-10T18:37:40.170Z,8.07
2019-05-10T18:40:10.721Z,7.80
2019-05-10T18:42:40.117Z,7.33
2019-05-10T18:45:09.657Z,5.40
2019-05-10T18:47:39.105Z,6.23
2019-05-10T18:50:08.635Z,8.23
2019-05-10T18:52:38.114Z,7.73
2019-05-10T18:55:07.654Z,5.37
2019-05-10T18:57:37.126Z,10.03
2019-05-10T19:00:07.983Z,7.80
2019-05-10T19:02:37.555Z,16.17
2019-05-10T19:05:07.242Z,9.33
2019-05-10T19:07:36.627Z,4.93
2019-05-10T19:10:06.313Z,7.70
2019-05-10T19:12:36.166Z,4.13
2019-05-10T19:15:09.103Z,7.40
2019-05-10T19:17:40.450Z,10.80
2019-05-10T19:20:09.475Z,5.77
2019-05-10T19:22:41.338Z,5.97
2019-05-10T19:25:11.977Z,8.30
2019-05-10T19:27:44.241Z,5.13
2019-05-10T19:30:13.145Z,5.00
2019-05-10T19:32:42.485Z,4.83
2019-05-10T19:35:12.295Z,5.77
2019-05-10T19:37:41.789Z,6.80
2019-05-10T19:40:11.527Z,6.70
2019-05-10T19:42:42.917Z,9.70
2019-05-10T19:45:12.818Z,9.57
2019-05-10T19:47:43.191Z,7.33
2019-05-10T19:50:12.607Z,7.67
2019-05-10T19:52:42.022Z,13.70
2019-05-10T19:55:13.258Z,8.90
2019-05-10T19:57:42.594Z,9.23
2019-05-10T20:00:12.370Z,13.10
2019-05-10T20:02:41.719Z,24.67
2019-05-10T20:05:11.353Z,32.97
2019-05-10T20:07:45.688Z,17.93
2019-05-10T20:10:11.833Z,22.77
2019-05-10T20:12:41.277Z,32.40
2019-05-10T20:15:10.705Z,23.17
2019-05-10T20:17:40.220Z,20.70
2019-05-10T20:20:09.825Z,21.23
2019-05-10T20:22:39.605Z,12.80
2019-05-10T20:25:09.654Z,12.57
2019-05-10T20:27:39.102Z,10.57
2019-05-10T20:30:08.861Z,8.97
2019-05-10T20:32:38.341Z,12.07
2019-05-10T20:35:08.200Z,12.80
2019-05-10T20:37:37.563Z,10.67
2019-05-10T20:40:07.476Z,10.80
2019-05-10T20:42:37.021Z,12.57
2019-05-10T20:45:08.365Z,22.27
2019-05-10T20:47:37.697Z,10.30
2019-05-10T20:50:07.327Z,10.83
2019-05-10T20:52:36.697Z,10.80
2019-05-10T20:55:06.816Z,10.80
2019-05-10T20:57:36.458Z,10.93
2019-05-10T21:00:06.243Z,10.73
2019-05-10T21:02:35.623Z,10.30
2019-05-10T21:05:05.116Z,12.60
2019-05-10T21:07:34.480Z,15.50
2019-05-10T21:10:03.903Z,12.07
2019-05-10T21:12:33.293Z,11.00
2019-05-10T21:15:02.725Z,12.33
2019-05-10T21:17:32.075Z,14.33
2019-05-10T21:20:01.491Z,7.80
2019-05-10T21:22:30.922Z,8.90
2019-05-10T21:25:00.634Z,13.03
2019-05-10T21:27:30.271Z,9.03
2019-05-10T21:29:59.683Z,16.73
2019-05-10T21:32:29.053Z,29.30
2019-05-10T21:34:58.450Z,10.20
2019-05-10T21:37:28.022Z,10.73
2019-05-10T21:39:57.496Z,11.13
2019-05-10T21:42:26.940Z,16.57
2019-05-10T21:44:56.324Z,13.63
2019-05-10T21:47:25.686Z,11.73
2019-05-10T21:49:55.085Z,17.87
2019-05-10T21:52:24.511Z,19.40
2019-05-10T21:54:53.951Z,21.07
2019-05-10T21:57:23.311Z,17.07
2019-05-10T21:59:52.745Z,22.27
2019-05-10T22:02:22.089Z,14.60
2019-05-10T22:04:51.447Z,13.37
2019-05-10T22:07:20.850Z,21.20
2019-05-10T22:09:50.208Z,14.17
2019-05-10T22:12:19.638Z,14.40
2019-05-10T22:14:49.019Z,14.30
2019-05-10T22:17:18.748Z,15.20
2019-05-10T22:19:48.168Z,10.37
2019-05-10T22:22:17.624Z,12.50
2019-05-10T22:24:47.088Z,12.00
2019-05-10T22:27:16.514Z,12.50
2019-05-10T22:29:46.050Z,10.83
2019-05-10T22:32:15.504Z,12.63
2019-05-10T22:34:44.876Z,11.70
2019-05-10T22:37:14.242Z,15.10
2019-05-10T22:39:43.636Z,12.70
2019-05-10T22:42:13.067Z,15.93
2019-05-10T22:44:42.831Z,14.40
2019-05-10T22:47:12.256Z,9.53
2019-05-10T22:49:41.641Z,13.57
2019-05-10T22:52:11.035Z,10.77
2019-05-10T22:54:40.433Z,11.80
2019-05-10T22:57:09.751Z,20.47
2019-05-10T22:59:39.022Z,19.00
2019-05-10T23:02:08.525Z,15.90
2019-05-10T23:04:37.939Z,12.40
2019-05-10T23:07:07.294Z,14.90
2019-05-10T23:09:36.848Z,12.30
2019-05-10T23:12:06.268Z,15.07
2019-05-10T23:14:35.650Z,15.67
2019-05-10T23:17:05.080Z,13.03
2019-05-10T23:19:34.491Z,19.27
2019-05-10T23:22:03.932Z,15.20
2019-05-10T23:24:37.506Z,15.33
2019-05-10T23:27:07.654Z,18.07
2019-05-10T23:29:36.981Z,12.87
2019-05-10T23:32:06.328Z,16.37
2019-05-10T23:34:35.802Z,13.33
2019-05-10T23:37:05.253Z,18.07
2019-05-10T23:39:40.933Z,11.33
2019-05-10T23:42:05.654Z,13.33
2019-05-10T23:44:35.076Z,12.87
2019-05-10T23:47:04.461Z,13.13
2019-05-10T23:49:33.995Z,12.30
2019-05-10T23:52:03.417Z,12.60
2019-05-10T23:54:32.903Z,16.87
2019-05-10T23:57:02.289Z,14.80
2019-05-10T23:59:31.677Z,18.30
